sensor_id;sensor_type;location;lat;lon;timestamp;pressure;altitude;pressure_sealevel;temperature;humidity
38912;BME280;28444;48.056;14.408;2023-03-30T00:00:12;97704.03;;;5.23;97.62
38912;BME280;28444;48.056;14.408;2023-03-30T00:02:47;97698.59;;;5.23;98.36
38912;BME280;28444;48.056;14.408;2023-03-30T00:05:18;97688.81;;;5.20;98.88
38912;BME280;28444;48.056;14.408;2023-03-30T00:07:46;97694.31;;;5.27;98.15
38912;BME280;28444;48.056;14.408;2023-03-30T00:10:15;97692.03;;;5.31;98.16
38912;BME280;28444;48.056;14.408;2023-03-30T00:12:46;97680.00;;;5.40;97.79
38912;BME280;28444;48.056;14.408;2023-03-30T00:15:14;97668.66;;;5.42;97.86
38912;BME280;28444;48.056;14.408;2023-03-30T00:17:42;97669.16;;;5.40;97.58
38912;BME280;28444;48.056;14.408;2023-03-30T00:20:10;97674.06;;;5.42;97.23
38912;BME280;28444;48.056;14.408;2023-03-30T00:22:38;97672.41;;;5.39;96.18
38912;BME280;28444;48.056;14.408;2023-03-30T00:25:08;97670.41;;;5.39;95.59
38912;BME280;28444;48.056;14.408;2023-03-30T00:27:35;97669.69;;;5.39;95.13
38912;BME280;28444;48.056;14.408;2023-03-30T00:30:04;97662.69;;;5.43;96.28
38912;BME280;28444;48.056;14.408;2023-03-30T00:32:31;97661.66;;;5.46;96.45
38912;BME280;28444;48.056;14.408;2023-03-30T00:34:59;97647.34;;;5.46;96.21
38912;BME280;28444;48.056;14.408;2023-03-30T00:37:27;97639.72;;;5.44;97.83
38912;BME280;28444;48.056;14.408;2023-03-30T00:39:54;97630.06;;;5.36;98.79
38912;BME280;28444;48.056;14.408;2023-03-30T00:42:21;97632.38;;;5.31;99.06
38912;BME280;28444;48.056;14.408;2023-03-30T00:45:27;97645.19;;;5.31;99.40
38912;BME280;28444;48.056;14.408;2023-03-30T00:47:59;97641.31;;;5.26;99.36
38912;BME280;28444;48.056;14.408;2023-03-30T00:53:23;97632.47;;;5.26;100.00
38912;BME280;28444;48.056;14.408;2023-03-30T00:55:52;97627.75;;;5.26;99.44
38912;BME280;28444;48.056;14.408;2023-03-30T00:58:21;97629.97;;;5.28;98.74
38912;BME280;28444;48.056;14.408;2023-03-30T01:00:48;97631.97;;;5.27;98.79
38912;BME280;28444;48.056;14.408;2023-03-30T01:03:45;97619.75;;;5.34;99.01
38912;BME280;28444;48.056;14.408;2023-03-30T01:06:15;97619.75;;;5.34;99.90
38912;BME280;28444;48.056;14.408;2023-03-30T01:08:47;97606.78;;;5.40;98.93
38912;BME280;28444;48.056;14.408;2023-03-30T01:11:14;97588.75;;;5.43;97.63
38912;BME280;28444;48.056;14.408;2023-03-30T01:13:44;97589.28;;;5.41;98.20
38912;BME280;28444;48.056;14.408;2023-03-30T01:16:24;97596.78;;;5.35;97.46
38912;BME280;28444;48.056;14.408;2023-03-30T01:28:21;97558.81;;;5.35;97.30
38912;BME280;28444;48.056;14.408;2023-03-30T01:36:58;97567.66;;;5.49;96.44
38912;BME280;28444;48.056;14.408;2023-03-30T01:42:23;97575.19;;;5.29;98.87
38912;BME280;28444;48.056;14.408;2023-03-30T01:45:22;97572.41;;;5.22;99.47
38912;BME280;28444;48.056;14.408;2023-03-30T01:50:41;97563.56;;;5.08;99.84
38912;BME280;28444;48.056;14.408;2023-03-30T01:53:27;97546.78;;;5.10;100.00
38912;BME280;28444;48.056;14.408;2023-03-30T01:56:03;97553.25;;;5.06;99.93
38912;BME280;28444;48.056;14.408;2023-03-30T01:58:36;97553.56;;;5.16;99.23
38912;BME280;28444;48.056;14.408;2023-03-30T02:01:05;97563.38;;;5.19;97.89
38912;BME280;28444;48.056;14.408;2023-03-30T02:03:37;97568.03;;;5.19;97.45
38912;BME280;28444;48.056;14.408;2023-03-30T02:06:14;97557.50;;;5.15;95.39
38912;BME280;28444;48.056;14.408;2023-03-30T02:08:43;97557.72;;;5.17;95.70
38912;BME280;28444;48.056;14.408;2023-03-30T02:11:12;97557.94;;;5.19;96.25
38912;BME280;28444;48.056;14.408;2023-03-30T02:13:39;97556.88;;;5.22;96.58
38912;BME280;28444;48.056;14.408;2023-03-30T02:16:37;97564.41;;;5.16;96.26
38912;BME280;28444;48.056;14.408;2023-03-30T02:19:07;97573.06;;;5.15;97.61
38912;BME280;28444;48.056;14.408;2023-03-30T02:21:34;97567.94;;;5.11;98.12
38912;BME280;28444;48.056;14.408;2023-03-30T02:24:04;97572.78;;;5.05;98.39
38912;BME280;28444;48.056;14.408;2023-03-30T02:26:32;97565.69;;;5.02;99.41
38912;BME280;28444;48.056;14.408;2023-03-30T02:28:59;97578.38;;;5.07;99.57
38912;BME280;28444;48.056;14.408;2023-03-30T02:31:26;97570.16;;;4.99;99.47
38912;BME280;28444;48.056;14.408;2023-03-30T02:37:12;97574.41;;;5.08;99.72
38912;BME280;28444;48.056;14.408;2023-03-30T02:39:48;97572.66;;;5.11;98.23
38912;BME280;28444;48.056;14.408;2023-03-30T02:45:16;97578.50;;;5.01;98.97
38912;BME280;28444;48.056;14.408;2023-03-30T02:48:03;97566.28;;;5.08;96.34
38912;BME280;28444;48.056;14.408;2023-03-30T02:50:42;97567.63;;;5.15;94.71
38912;BME280;28444;48.056;14.408;2023-03-30T02:53:28;97557.19;;;5.19;94.84
38912;BME280;28444;48.056;14.408;2023-03-30T02:56:01;97554.16;;;5.22;93.87
38912;BME280;28444;48.056;14.408;2023-03-30T02:58:40;97556.53;;;5.26;93.73
38912;BME280;28444;48.056;14.408;2023-03-30T03:01:31;97550.94;;;5.24;95.89
38912;BME280;28444;48.056;14.408;2023-03-30T03:04:01;97555.31;;;5.27;95.78
38912;BME280;28444;48.056;14.408;2023-03-30T03:06:29;97555.81;;;5.25;96.19
38912;BME280;28444;48.056;14.408;2023-03-30T03:08:58;97562.28;;;5.22;97.15
38912;BME280;28444;48.056;14.408;2023-03-30T03:11:25;97557.00;;;5.17;98.00
38912;BME280;28444;48.056;14.408;2023-03-30T03:13:51;97547.28;;;5.21;98.25
38912;BME280;28444;48.056;14.408;2023-03-30T03:16:18;97542.72;;;5.16;97.62
38912;BME280;28444;48.056;14.408;2023-03-30T03:18:44;97542.50;;;5.14;97.56
38912;BME280;28444;48.056;14.408;2023-03-30T03:21:12;97525.41;;;5.19;97.87
38912;BME280;28444;48.056;14.408;2023-03-30T03:23:41;97522.91;;;5.08;98.13
38912;BME280;28444;48.056;14.408;2023-03-30T03:26:09;97515.72;;;5.11;97.89
38912;BME280;28444;48.056;14.408;2023-03-30T03:28:37;97501.44;;;5.10;97.09
38912;BME280;28444;48.056;14.408;2023-03-30T03:31:03;97509.03;;;5.12;97.66
38912;BME280;28444;48.056;14.408;2023-03-30T03:33:32;97497.69;;;5.13;97.08
38912;BME280;28444;48.056;14.408;2023-03-30T03:35:59;97503.72;;;5.19;97.65
38912;BME280;28444;48.056;14.408;2023-03-30T03:38:27;97490.75;;;5.25;97.43
38912;BME280;28444;48.056;14.408;2023-03-30T03:40:56;97491.41;;;5.18;96.93
38912;BME280;28444;48.056;14.408;2023-03-30T03:43:23;97495.38;;;5.17;97.11
38912;BME280;28444;48.056;14.408;2023-03-30T03:45:50;97488.81;;;5.13;97.06
38912;BME280;28444;48.056;14.408;2023-03-30T03:48:18;97496.63;;;5.16;96.62
38912;BME280;28444;48.056;14.408;2023-03-30T03:50:50;97499.25;;;5.09;97.90
38912;BME280;28444;48.056;14.408;2023-03-30T03:53:17;97500.81;;;5.04;99.70
38912;BME280;28444;48.056;14.408;2023-03-30T03:55:44;97499.06;;;5.06;99.30
38912;BME280;28444;48.056;14.408;2023-03-30T03:58:13;97500.72;;;5.10;99.18
38912;BME280;28444;48.056;14.408;2023-03-30T04:00:40;97497.28;;;5.09;99.01
38912;BME280;28444;48.056;14.408;2023-03-30T04:03:07;97492.81;;;4.98;100.00
38912;BME280;28444;48.056;14.408;2023-03-30T04:05:34;97496.38;;;4.93;100.00
38912;BME280;28444;48.056;14.408;2023-03-30T04:08:01;97497.09;;;4.94;100.00
38912;BME280;28444;48.056;14.408;2023-03-30T04:10:28;97482.31;;;4.95;99.54
38912;BME280;28444;48.056;14.408;2023-03-30T04:12:55;97482.50;;;4.97;99.53
38912;BME280;28444;48.056;14.408;2023-03-30T04:15:24;97475.63;;;4.96;100.00
38912;BME280;28444;48.056;14.408;2023-03-30T04:17:51;97466.44;;;4.99;99.62
38912;BME280;28444;48.056;14.408;2023-03-30T04:20:28;97469.56;;;5.03;99.79
38912;BME280;28444;48.056;14.408;2023-03-30T04:22:55;97460.81;;;4.97;99.44
38912;BME280;28444;48.056;14.408;2023-03-30T04:25:23;97465.59;;;5.04;99.13
38912;BME280;28444;48.056;14.408;2023-03-30T04:27:55;97469.63;;;5.11;99.01
38912;BME280;28444;48.056;14.408;2023-03-30T04:30:22;97472.88;;;5.09;98.89
38912;BME280;28444;48.056;14.408;2023-03-30T04:32:49;97472.59;;;4.99;99.57
38912;BME280;28444;48.056;14.408;2023-03-30T04:35:32;97473.00;;;5.03;99.99
38912;BME280;28444;48.056;14.408;2023-03-30T04:38:00;97475.84;;;4.98;99.73
38912;BME280;28444;48.056;14.408;2023-03-30T04:40:28;97468.50;;;5.06;98.84
38912;BME280;28444;48.056;14.408;2023-03-30T04:42:55;97469.97;;;5.07;98.09
38912;BME280;28444;48.056;14.408;2023-03-30T04:45:28;97463.38;;;5.16;98.48
38912;BME280;28444;48.056;14.408;2023-03-30T04:47:55;97458.59;;;5.09;99.43
38912;BME280;28444;48.056;14.408;2023-03-30T04:50:22;97458.94;;;5.05;99.47
38912;BME280;28444;48.056;14.408;2023-03-30T04:52:49;97450.66;;;5.11;98.90
38912;BME280;28444;48.056;14.408;2023-03-30T04:55:15;97453.59;;;5.13;98.90
38912;BME280;28444;48.056;14.408;2023-03-30T04:57:42;97457.00;;;5.13;98.93
38912;BME280;28444;48.056;14.408;2023-03-30T05:00:09;97459.59;;;5.19;98.16
38912;BME280;28444;48.056;14.408;2023-03-30T05:02:37;97450.78;;;5.26;98.59
38912;BME280;28444;48.056;14.408;2023-03-30T05:05:04;97456.44;;;5.28;97.91
38912;BME280;28444;48.056;14.408;2023-03-30T05:07:31;97444.00;;;5.32;98.11
38912;BME280;28444;48.056;14.408;2023-03-30T05:09:57;97444.41;;;5.16;99.16
38912;BME280;28444;48.056;14.408;2023-03-30T05:12:24;97460.69;;;5.02;100.00
38912;BME280;28444;48.056;14.408;2023-03-30T05:14:50;97445.72;;;4.88;100.00
38912;BME280;28444;48.056;14.408;2023-03-30T05:17:17;97463.03;;;4.85;100.00
38912;BME280;28444;48.056;14.408;2023-03-30T05:19:44;97454.91;;;4.85;100.00
38912;BME280;28444;48.056;14.408;2023-03-30T05:22:11;97480.34;;;4.82;100.00
38912;BME280;28444;48.056;14.408;2023-03-30T05:24:38;97462.94;;;4.77;100.00
38912;BME280;28444;48.056;14.408;2023-03-30T05:27:05;97488.06;;;4.78;100.00
38912;BME280;28444;48.056;14.408;2023-03-30T05:29:32;97463.16;;;4.79;100.00
38912;BME280;28444;48.056;14.408;2023-03-30T05:31:59;97479.31;;;4.72;100.00
38912;BME280;28444;48.056;14.408;2023-03-30T05:34:25;97477.88;;;4.71;100.00
38912;BME280;28444;48.056;14.408;2023-03-30T05:36:55;97481.72;;;4.75;100.00
38912;BME280;28444;48.056;14.408;2023-03-30T05:39:21;97483.59;;;4.80;100.00
38912;BME280;28444;48.056;14.408;2023-03-30T05:41:48;97487.09;;;4.89;100.00
38912;BME280;28444;48.056;14.408;2023-03-30T05:44:15;97487.50;;;4.93;100.00
38912;BME280;28444;48.056;14.408;2023-03-30T05:46:42;97486.88;;;5.00;100.00
38912;BME280;28444;48.056;14.408;2023-03-30T05:49:09;97488.97;;;4.94;100.00
38912;BME280;28444;48.056;14.408;2023-03-30T05:51:35;97481.25;;;4.98;100.00
38912;BME280;28444;48.056;14.408;2023-03-30T05:54:02;97473.06;;;5.11;100.00
38912;BME280;28444;48.056;14.408;2023-03-30T05:56:29;97479.16;;;5.25;100.00
38912;BME280;28444;48.056;14.408;2023-03-30T05:58:55;97491.44;;;5.39;100.00
38912;BME280;28444;48.056;14.408;2023-03-30T06:01:22;97496.59;;;5.50;98.56
38912;BME280;28444;48.056;14.408;2023-03-30T06:03:50;97499.38;;;5.58;99.62
38912;BME280;28444;48.056;14.408;2023-03-30T06:06:17;97509.81;;;5.54;99.32
38912;BME280;28444;48.056;14.408;2023-03-30T06:08:43;97522.66;;;5.53;98.89
38912;BME280;28444;48.056;14.408;2023-03-30T06:11:10;97521.78;;;5.59;98.63
38912;BME280;28444;48.056;14.408;2023-03-30T06:13:39;97532.00;;;5.66;99.01
38912;BME280;28444;48.056;14.408;2023-03-30T06:16:06;97527.63;;;5.63;97.82
38912;BME280;28444;48.056;14.408;2023-03-30T06:18:33;97520.28;;;5.71;95.93
38912;BME280;28444;48.056;14.408;2023-03-30T06:20:59;97516.75;;;5.84;96.10
38912;BME280;28444;48.056;14.408;2023-03-30T06:23:36;97509.84;;;5.96;97.48
38912;BME280;28444;48.056;14.408;2023-03-30T06:26:03;97512.94;;;6.00;97.69
38912;BME280;28444;48.056;14.408;2023-03-30T06:28:30;97519.69;;;6.07;97.61
38912;BME280;28444;48.056;14.408;2023-03-30T06:30:57;97523.84;;;6.29;96.02
38912;BME280;28444;48.056;14.408;2023-03-30T06:33:29;97520.94;;;6.34;94.52
38912;BME280;28444;48.056;14.408;2023-03-30T06:35:57;97509.94;;;6.40;95.33
38912;BME280;28444;48.056;14.408;2023-03-30T06:38:23;97518.78;;;6.61;94.61
38912;BME280;28444;48.056;14.408;2023-03-30T06:40:50;97524.06;;;6.74;93.67
38912;BME280;28444;48.056;14.408;2023-03-30T06:43:19;97520.13;;;6.83;92.17
38912;BME280;28444;48.056;14.408;2023-03-30T06:45:51;97525.59;;;6.91;92.31
38912;BME280;28444;48.056;14.408;2023-03-30T06:48:19;97530.38;;;7.06;92.33
38912;BME280;28444;48.056;14.408;2023-03-30T06:50:46;97533.25;;;7.08;91.69
38912;BME280;28444;48.056;14.408;2023-03-30T06:53:13;97540.16;;;7.09;92.87
38912;BME280;28444;48.056;14.408;2023-03-30T06:55:40;97547.66;;;7.23;92.56
38912;BME280;28444;48.056;14.408;2023-03-30T06:58:07;97549.50;;;7.36;91.97
38912;BME280;28444;48.056;14.408;2023-03-30T07:00:34;97555.34;;;7.48;90.64
38912;BME280;28444;48.056;14.408;2023-03-30T07:03:02;97555.72;;;7.52;90.33
38912;BME280;28444;48.056;14.408;2023-03-30T07:05:29;97562.03;;;7.47;87.99
38912;BME280;28444;48.056;14.408;2023-03-30T07:07:56;97565.66;;;7.42;89.42
38912;BME280;28444;48.056;14.408;2023-03-30T07:10:23;97568.88;;;7.33;88.79
38912;BME280;28444;48.056;14.408;2023-03-30T07:12:50;97572.53;;;7.35;88.42
38912;BME280;28444;48.056;14.408;2023-03-30T07:15:17;97583.03;;;7.31;89.15
38912;BME280;28444;48.056;14.408;2023-03-30T07:17:44;97575.94;;;7.28;88.50
38912;BME280;28444;48.056;14.408;2023-03-30T07:20:11;97576.88;;;7.31;88.86
38912;BME280;28444;48.056;14.408;2023-03-30T07:22:41;97588.81;;;7.28;88.90
38912;BME280;28444;48.056;14.408;2023-03-30T07:25:09;97591.19;;;7.31;89.66
38912;BME280;28444;48.056;14.408;2023-03-30T07:27:36;97595.19;;;7.30;90.25
38912;BME280;28444;48.056;14.408;2023-03-30T07:30:04;97584.47;;;7.24;89.45
38912;BME280;28444;48.056;14.408;2023-03-30T07:32:48;97588.81;;;7.28;89.93
38912;BME280;28444;48.056;14.408;2023-03-30T07:35:16;97599.50;;;7.26;89.55
38912;BME280;28444;48.056;14.408;2023-03-30T07:37:42;97588.97;;;7.22;89.92
38912;BME280;28444;48.056;14.408;2023-03-30T07:40:09;97582.97;;;7.08;91.99
38912;BME280;28444;48.056;14.408;2023-03-30T07:42:37;97589.66;;;7.15;92.04
38912;BME280;28444;48.056;14.408;2023-03-30T07:45:04;97583.53;;;7.22;91.98
38912;BME280;28444;48.056;14.408;2023-03-30T07:47:31;97588.44;;;7.16;93.41
38912;BME280;28444;48.056;14.408;2023-03-30T07:49:58;97581.00;;;7.24;93.79
38912;BME280;28444;48.056;14.408;2023-03-30T07:52:24;97593.03;;;7.36;92.90
38912;BME280;28444;48.056;14.408;2023-03-30T07:54:52;97584.53;;;7.47;91.50
38912;BME280;28444;48.056;14.408;2023-03-30T07:57:20;97587.66;;;7.52;89.87
38912;BME280;28444;48.056;14.408;2023-03-30T07:59:47;97584.94;;;7.59;91.64
38912;BME280;28444;48.056;14.408;2023-03-30T08:02:14;97584.19;;;7.59;91.82
38912;BME280;28444;48.056;14.408;2023-03-30T08:04:41;97593.13;;;7.67;91.11
38912;BME280;28444;48.056;14.408;2023-03-30T08:07:10;97587.66;;;7.67;91.06
38912;BME280;28444;48.056;14.408;2023-03-30T08:09:37;97573.72;;;7.70;90.55
38912;BME280;28444;48.056;14.408;2023-03-30T08:12:04;97573.88;;;7.80;89.41
38912;BME280;28444;48.056;14.408;2023-03-30T08:14:31;97577.00;;;7.84;89.79
38912;BME280;28444;48.056;14.408;2023-03-30T08:16:58;97573.34;;;7.82;90.38
38912;BME280;28444;48.056;14.408;2023-03-30T08:19:24;97576.25;;;7.76;90.37
38912;BME280;28444;48.056;14.408;2023-03-30T08:21:52;97578.78;;;7.74;91.21
38912;BME280;28444;48.056;14.408;2023-03-30T08:24:19;97580.03;;;7.65;90.42
38912;BME280;28444;48.056;14.408;2023-03-30T08:26:45;97576.94;;;7.61;92.10
38912;BME280;28444;48.056;14.408;2023-03-30T08:29:12;97573.34;;;7.66;90.88
38912;BME280;28444;48.056;14.408;2023-03-30T08:31:39;97581.88;;;7.70;90.60
38912;BME280;28444;48.056;14.408;2023-03-30T08:34:05;97584.59;;;7.70;89.57
38912;BME280;28444;48.056;14.408;2023-03-30T08:36:33;97570.06;;;7.76;90.33
38912;BME280;28444;48.056;14.408;2023-03-30T08:39:00;97571.50;;;7.69;91.03
38912;BME280;28444;48.056;14.408;2023-03-30T08:41:36;97575.16;;;7.71;92.01
38912;BME280;28444;48.056;14.408;2023-03-30T08:44:34;97573.88;;;7.72;91.51
38912;BME280;28444;48.056;14.408;2023-03-30T08:47:04;97573.69;;;7.63;90.93
38912;BME280;28444;48.056;14.408;2023-03-30T08:49:34;97573.69;;;7.63;90.73
38912;BME280;28444;48.056;14.408;2023-03-30T08:52:04;97567.34;;;7.60;93.50
38912;BME280;28444;48.056;14.408;2023-03-30T08:54:31;97562.97;;;7.65;93.69
38912;BME280;28444;48.056;14.408;2023-03-30T08:57:11;97557.00;;;7.66;94.05
38912;BME280;28444;48.056;14.408;2023-03-30T09:00:11;97539.56;;;7.69;96.27
38912;BME280;28444;48.056;14.408;2023-03-30T09:02:48;97539.22;;;7.73;97.19
38912;BME280;28444;48.056;14.408;2023-03-30T09:05:38;97531.59;;;7.79;97.03
38912;BME280;28444;48.056;14.408;2023-03-30T09:08:11;97529.59;;;7.72;95.76
38912;BME280;28444;48.056;14.408;2023-03-30T09:10:42;97518.34;;;7.76;95.92
38912;BME280;28444;48.056;14.408;2023-03-30T09:13:15;97506.75;;;7.83;97.32
38912;BME280;28444;48.056;14.408;2023-03-30T09:16:01;97498.56;;;7.90;95.31
38912;BME280;28444;48.056;14.408;2023-03-30T09:18:33;97490.94;;;7.96;98.14
38912;BME280;28444;48.056;14.408;2023-03-30T09:21:02;97492.75;;;8.09;98.30
38912;BME280;28444;48.056;14.408;2023-03-30T09:23:29;97488.75;;;8.18;95.24
38912;BME280;28444;48.056;14.408;2023-03-30T09:26:07;97484.38;;;8.23;94.79
38912;BME280;28444;48.056;14.408;2023-03-30T09:28:50;97477.47;;;8.29;91.89
38912;BME280;28444;48.056;14.408;2023-03-30T09:31:32;97462.56;;;8.30;91.19
38912;BME280;28444;48.056;14.408;2023-03-30T09:34:24;97459.47;;;8.34;91.13
38912;BME280;28444;48.056;14.408;2023-03-30T09:36:56;97444.22;;;8.38;91.60
38912;BME280;28444;48.056;14.408;2023-03-30T09:39:25;97450.41;;;8.39;91.08
38912;BME280;28444;48.056;14.408;2023-03-30T09:42:51;97437.66;;;8.49;91.29
38912;BME280;28444;48.056;14.408;2023-03-30T09:45:06;97420.34;;;8.62;89.90
38912;BME280;28444;48.056;14.408;2023-03-30T09:47:38;97415.91;;;8.74;90.36
38912;BME280;28444;48.056;14.408;2023-03-30T09:52:35;97389.69;;;8.86;89.39
38912;BME280;28444;48.056;14.408;2023-03-30T09:57:50;97384.09;;;9.09;89.77
38912;BME280;28444;48.056;14.408;2023-03-30T10:00:32;97375.97;;;9.27;92.43
38912;BME280;28444;48.056;14.408;2023-03-30T10:03:01;97361.28;;;9.39;95.20
38912;BME280;28444;48.056;14.408;2023-03-30T10:05:30;97333.56;;;9.68;90.61
38912;BME280;28444;48.056;14.408;2023-03-30T10:08:00;97335.09;;;9.79;90.29
38912;BME280;28444;48.056;14.408;2023-03-30T10:10:38;97331.06;;;9.97;92.26
38912;BME280;28444;48.056;14.408;2023-03-30T10:13:16;97322.97;;;9.89;95.27
38912;BME280;28444;48.056;14.408;2023-03-30T10:15:46;97325.19;;;10.01;93.91
38912;BME280;28444;48.056;14.408;2023-03-30T10:20:50;97307.41;;;10.44;88.91
38912;BME280;28444;48.056;14.408;2023-03-30T10:23:19;97314.34;;;10.55;87.65
38912;BME280;28444;48.056;14.408;2023-03-30T10:25:48;97305.16;;;10.60;88.01
38912;BME280;28444;48.056;14.408;2023-03-30T10:28:28;97303.47;;;10.65;89.44
38912;BME280;28444;48.056;14.408;2023-03-30T10:33:41;97295.66;;;10.88;91.61
38912;BME280;28444;48.056;14.408;2023-03-30T10:36:09;97286.59;;;10.95;92.39
38912;BME280;28444;48.056;14.408;2023-03-30T10:38:39;97289.50;;;10.97;90.96
38912;BME280;28444;48.056;14.408;2023-03-30T10:41:15;97283.28;;;10.87;94.54
38912;BME280;28444;48.056;14.408;2023-03-30T10:43:47;97286.84;;;10.80;92.39
38912;BME280;28444;48.056;14.408;2023-03-30T10:46:21;97267.41;;;10.85;93.66
38912;BME280;28444;48.056;14.408;2023-03-30T10:49:15;97265.97;;;10.84;96.11
38912;BME280;28444;48.056;14.408;2023-03-30T10:52:09;97264.84;;;10.88;96.56
38912;BME280;28444;48.056;14.408;2023-03-30T10:58:03;97246.69;;;10.92;94.12
38912;BME280;28444;48.056;14.408;2023-03-30T11:03:25;97244.75;;;11.12;90.12
38912;BME280;28444;48.056;14.408;2023-03-30T11:06:03;97232.63;;;11.05;91.52
38912;BME280;28444;48.056;14.408;2023-03-30T11:08:36;97221.25;;;11.09;92.88
38912;BME280;28444;48.056;14.408;2023-03-30T11:11:05;97218.53;;;11.28;91.83
38912;BME280;28444;48.056;14.408;2023-03-30T11:13:39;97218.72;;;11.40;93.48
38912;BME280;28444;48.056;14.408;2023-03-30T11:19:21;97208.47;;;11.41;91.14
38912;BME280;28444;48.056;14.408;2023-03-30T11:22:12;97204.44;;;11.51;93.06
38912;BME280;28444;48.056;14.408;2023-03-30T11:24:41;97197.66;;;11.62;93.12
38912;BME280;28444;48.056;14.408;2023-03-30T11:27:17;97188.28;;;11.65;93.44
38912;BME280;28444;48.056;14.408;2023-03-30T11:40:44;97142.53;;;11.97;95.14
38912;BME280;28444;48.056;14.408;2023-03-30T11:43:14;97146.16;;;11.90;93.82
38912;BME280;28444;48.056;14.408;2023-03-30T11:54:53;97142.56;;;12.59;92.86
38912;BME280;28444;48.056;14.408;2023-03-30T11:57:36;97154.38;;;12.62;92.96
38912;BME280;28444;48.056;14.408;2023-03-30T12:06:04;97122.47;;;12.88;89.15
38912;BME280;28444;48.056;14.408;2023-03-30T12:09:13;97125.09;;;13.07;87.15
38912;BME280;28444;48.056;14.408;2023-03-30T12:14:34;97136.56;;;13.15;89.91
38912;BME280;28444;48.056;14.408;2023-03-30T12:17:25;97146.38;;;13.18;90.02
38912;BME280;28444;48.056;14.408;2023-03-30T12:22:42;97108.75;;;13.42;90.21
38912;BME280;28444;48.056;14.408;2023-03-30T12:28:08;97127.69;;;13.71;91.90
38912;BME280;28444;48.056;14.408;2023-03-30T12:30:54;97119.22;;;13.79;90.90
38912;BME280;28444;48.056;14.408;2023-03-30T12:33:34;97116.25;;;13.75;88.70
38912;BME280;28444;48.056;14.408;2023-03-30T12:36:36;97117.69;;;13.88;89.29
38912;BME280;28444;48.056;14.408;2023-03-30T12:39:17;97120.78;;;13.70;89.20
38912;BME280;28444;48.056;14.408;2023-03-30T12:41:49;97113.63;;;13.77;88.20
38912;BME280;28444;48.056;14.408;2023-03-30T12:44:59;97112.03;;;13.62;89.55
38912;BME280;28444;48.056;14.408;2023-03-30T12:56:05;97113.13;;;13.69;89.71
38912;BME280;28444;48.056;14.408;2023-03-30T13:01:43;97122.56;;;13.66;91.16
38912;BME280;28444;48.056;14.408;2023-03-30T13:04:25;97122.91;;;13.60;90.49
38912;BME280;28444;48.056;14.408;2023-03-30T13:06:59;97138.94;;;13.76;91.28
38912;BME280;28444;48.056;14.408;2023-03-30T13:09:30;97136.06;;;13.73;89.19
38912;BME280;28444;48.056;14.408;2023-03-30T13:12:20;97142.03;;;13.70;90.47
38912;BME280;28444;48.056;14.408;2023-03-30T13:14:57;97146.31;;;13.61;90.55
38912;BME280;28444;48.056;14.408;2023-03-30T13:17:25;97158.53;;;13.37;91.84
38912;BME280;28444;48.056;14.408;2023-03-30T13:26:18;97158.94;;;13.00;93.12
38912;BME280;28444;48.056;14.408;2023-03-30T13:29:08;97156.97;;;13.12;93.58
38912;BME280;28444;48.056;14.408;2023-03-30T13:32:13;97165.41;;;13.05;95.31
38912;BME280;28444;48.056;14.408;2023-03-30T13:35:00;97162.75;;;13.07;94.27
38912;BME280;28444;48.056;14.408;2023-03-30T13:40:54;97157.69;;;12.91;92.79
38912;BME280;28444;48.056;14.408;2023-03-30T13:46:30;97166.53;;;12.59;93.88
38912;BME280;28444;48.056;14.408;2023-03-30T13:50:09;97171.47;;;12.50;93.87
38912;BME280;28444;48.056;14.408;2023-03-30T13:52:17;97186.44;;;12.59;97.71
38912;BME280;28444;48.056;14.408;2023-03-30T13:54:45;97199.47;;;12.49;96.59
38912;BME280;28444;48.056;14.408;2023-03-30T13:57:17;97217.31;;;12.60;99.84
38912;BME280;28444;48.056;14.408;2023-03-30T13:59:51;97218.38;;;12.55;99.58
38912;BME280;28444;48.056;14.408;2023-03-30T14:02:20;97219.22;;;12.57;100.00
38912;BME280;28444;48.056;14.408;2023-03-30T14:04:47;97239.28;;;12.60;100.00
38912;BME280;28444;48.056;14.408;2023-03-30T14:07:18;97236.06;;;12.63;100.00
38912;BME280;28444;48.056;14.408;2023-03-30T14:10:06;97232.59;;;12.72;100.00
38912;BME280;28444;48.056;14.408;2023-03-30T14:12:37;97242.25;;;12.73;100.00
38912;BME280;28444;48.056;14.408;2023-03-30T14:15:20;97261.22;;;12.60;100.00
38912;BME280;28444;48.056;14.408;2023-03-30T14:17:53;97275.53;;;12.58;100.00
38912;BME280;28444;48.056;14.408;2023-03-30T14:20:59;97298.94;;;12.40;100.00
38912;BME280;28444;48.056;14.408;2023-03-30T14:23:33;97313.97;;;12.29;100.00
38912;BME280;28444;48.056;14.408;2023-03-30T14:26:45;97339.69;;;12.14;100.00
38912;BME280;28444;48.056;14.408;2023-03-30T14:28:55;97334.50;;;11.99;100.00
38912;BME280;28444;48.056;14.408;2023-03-30T14:31:22;97355.09;;;11.90;100.00
38912;BME280;28444;48.056;14.408;2023-03-30T14:33:49;97361.88;;;11.89;100.00
38912;BME280;28444;48.056;14.408;2023-03-30T14:36:16;97372.09;;;11.79;100.00
38912;BME280;28444;48.056;14.408;2023-03-30T14:38:46;97376.09;;;11.59;100.00
38912;BME280;28444;48.056;14.408;2023-03-30T14:41:27;97389.47;;;11.54;100.00
38912;BME280;28444;48.056;14.408;2023-03-30T14:43:59;97384.81;;;11.38;100.00
38912;BME280;28444;48.056;14.408;2023-03-30T14:46:38;97380.19;;;11.30;100.00
38912;BME280;28444;48.056;14.408;2023-03-30T14:49:05;97375.09;;;11.17;100.00
38912;BME280;28444;48.056;14.408;2023-03-30T14:51:40;97372.06;;;11.13;100.00
38912;BME280;28444;48.056;14.408;2023-03-30T14:54:12;97372.19;;;11.05;100.00
38912;BME280;28444;48.056;14.408;2023-03-30T14:56:43;97378.47;;;10.98;100.00
38912;BME280;28444;48.056;14.408;2023-03-30T14:59:12;97373.53;;;10.87;100.00
38912;BME280;28444;48.056;14.408;2023-03-30T15:01:42;97377.56;;;10.86;100.00
38912;BME280;28444;48.056;14.408;2023-03-30T15:04:13;97369.19;;;10.84;100.00
38912;BME280;28444;48.056;14.408;2023-03-30T15:06:40;97353.31;;;10.73;100.00
38912;BME280;28444;48.056;14.408;2023-03-30T15:09:19;97361.75;;;10.67;100.00